This is the latest recevied weather packets stored in our database for station/object SQ4IXR-4. If no packets are shown the sender has not sent any weather packets the latest 10 day(s).
| Time | Temp. | Humidity | Pressure | Rain* | Wind** | Luminosity | Snow |
|---|---|---|---|---|---|---|---|
| 1777285932 | 15.56° C | 23% | 1022.5 hPa | - | - | - | - |
| 1777285104 | 16.11° C | 23% | 1022.4 hPa | - | - | - | - |
| 1777284280 | 15° C | 23% | 1022.3 hPa | - | - | - | - |
| 1777283457 | 14.44° C | 24% | 1022.6 hPa | - | - | - | - |
| 1777282634 | 14.44° C | 25% | 1022.5 hPa | - | - | - | - |
| 1777281823 | 18.33° C | 20% | 1022.1 hPa | - | - | - | - |
| 1777281015 | 25.56° C | 14% | 1021.6 hPa | - | - | - | - |
| 1777280210 | 33.89° C | 9% | 1021.2 hPa | - | - | - | - |
| 1777279407 | 45° C | 4% | 1020.7 hPa | - | - | - | - |
| 1777278588 | 48.33° C | 4% | 1020.6 hPa | - | - | - | - |
| 1777277770 | 48.33° C | 3% | 1020.7 hPa | - | - | - | - |
| 1777276943 | 48.33° C | 4% | 1020.8 hPa | - | - | - | - |
| 1777276114 | 46.67° C | 4% | 1021 hPa | - | - | - | - |
| 1777275291 | 45.56° C | 5% | 1021 hPa | - | - | - | - |
| 1777274472 | 45.56° C | 5% | 1021.1 hPa | - | - | - | - |
| 1777273643 | 43.89° C | 5% | 1021.3 hPa | - | - | - | - |
| 1777272813 | 40.56° C | 7% | 1021.5 hPa | - | - | - | - |
| 1777271987 | 39.44° C | 7% | 1021.7 hPa | - | - | - | - |
| 1777271149 | 35° C | 10% | 1022 hPa | - | - | - | - |
| 1777270324 | 26.67° C | 14% | 1022.5 hPa | - | - | - | - |
| 1777269489 | 29.44° C | 13% | 1022.4 hPa | - | - | - | - |
| 1777268638 | 18.33° C | 23% | 1023.1 hPa | - | - | - | - |
| 1777267802 | 9.44° C | 33% | 1023.8 hPa | - | - | - | - |
| 1777266974 | 8.33° C | 36% | 1024 hPa | - | - | - | - |
| 1777266149 | 7.22° C | 38% | 1024.2 hPa | - | - | - | - |
* Rain since midnight (hover to see other rain measurements)
** Current wind speed in m/s (hover to see current wind gust speed)